createdAt,value
2022-08-05T00:00:19.024Z,4.75
2022-08-05T00:02:51.676Z,4.53
2022-08-05T00:06:03.051Z,4.53
2022-08-05T00:08:32.752Z,4.50
2022-08-05T00:11:00.271Z,4.72
2022-08-05T00:13:38.829Z,4.63
2022-08-05T00:16:09.253Z,4.30
2022-08-05T00:18:38.665Z,4.85
2022-08-05T00:21:06.940Z,4.45
2022-08-05T00:23:46.614Z,4.45
2022-08-05T00:26:20.465Z,4.65
2022-08-05T00:28:47.024Z,4.65
2022-08-05T00:31:15.881Z,4.53
2022-08-05T00:34:56.278Z,4.90
2022-08-05T00:37:11.598Z,4.43
2022-08-05T00:39:15.728Z,4.78
2022-08-05T00:41:55.162Z,4.65
2022-08-05T00:44:30.904Z,4.60
2022-08-05T00:47:02.245Z,4.90
2022-08-05T00:49:32.681Z,4.63
2022-08-05T00:52:10.990Z,4.80
2022-08-05T00:54:38.716Z,5.00
2022-08-05T00:57:05.377Z,5.30
2022-08-05T00:59:34.582Z,4.97
2022-08-05T01:02:11.248Z,5.22
2022-08-05T01:04:37.952Z,5.75
2022-08-05T01:07:08.876Z,5.80
2022-08-05T01:09:41.824Z,5.60
2022-08-05T01:12:18.433Z,6.30
2022-08-05T01:15:03.997Z,5.75
2022-08-05T01:17:39.867Z,6.05
2022-08-05T01:20:25.649Z,5.75
2022-08-05T01:23:34.828Z,6.43
2022-08-05T01:26:26.384Z,5.60
2022-08-05T01:29:07.397Z,5.55
2022-08-05T01:31:46.504Z,5.50
2022-08-05T01:34:26.956Z,5.47
2022-08-05T01:37:00.655Z,5.20
2022-08-05T01:39:46.288Z,5.50
2022-08-05T01:42:16.315Z,5.20
2022-08-05T01:44:45.709Z,5.43
2022-08-05T01:47:22.043Z,5.30
2022-08-05T01:50:02.160Z,5.50
2022-08-05T01:52:32.282Z,5.30
2022-08-05T01:55:04.467Z,5.38
2022-08-05T01:58:11.649Z,5.38
2022-08-05T02:00:30.589Z,5.57
2022-08-05T02:03:29.156Z,5.30
2022-08-05T02:06:03.350Z,5.55
2022-08-05T02:08:55.010Z,5.63
2022-08-05T02:11:33.178Z,5.00
2022-08-05T02:14:05.310Z,5.32
2022-08-05T02:16:39.480Z,4.93
2022-08-05T02:19:17.588Z,5.55
2022-08-05T02:21:58.281Z,4.80
2022-08-05T02:24:32.247Z,5.10
2022-08-05T02:27:10.438Z,4.90
2022-08-05T02:29:58.757Z,4.80
2022-08-05T02:32:30.848Z,4.75
2022-08-05T02:35:02.138Z,5.00
2022-08-05T02:37:41.626Z,4.82
2022-08-05T02:40:09.922Z,4.90
2022-08-05T02:42:37.755Z,5.60
2022-08-05T02:45:07.034Z,5.03
2022-08-05T02:47:58.761Z,5.43
2022-08-05T02:50:23.819Z,5.30
2022-08-05T02:52:51.783Z,5.10
2022-08-05T02:55:54.486Z,5.40
2022-08-05T02:58:10.506Z,5.05
2022-08-05T03:00:40.469Z,5.20
2022-08-05T03:03:14.801Z,4.90
2022-08-05T03:06:55.283Z,4.78
2022-08-05T03:08:31.040Z,5.10
2022-08-05T03:11:01.088Z,4.90
2022-08-05T03:13:51.477Z,4.97
2022-08-05T03:16:30.067Z,5.30
2022-08-05T03:18:58.088Z,5.47
2022-08-05T03:21:24.602Z,5.05
2022-08-05T03:23:55.955Z,5.30
2022-08-05T03:26:32.075Z,5.22
2022-08-05T03:28:59.538Z,5.10
2022-08-05T03:31:56.032Z,5.18
2022-08-05T03:34:12.809Z,5.20
2022-08-05T03:36:39.322Z,4.95
2022-08-05T03:39:08.188Z,4.97
2022-08-05T03:41:45.357Z,5.10
2022-08-05T03:44:13.594Z,4.78
2022-08-05T03:46:46.673Z,4.85
2022-08-05T03:49:13.152Z,4.90
2022-08-05T03:52:38.912Z,4.82
2022-08-05T03:56:03.888Z,5.10
2022-08-05T03:57:58.732Z,5.38
2022-08-05T04:00:31.260Z,5.13
2022-08-05T04:03:01.359Z,5.00
2022-08-05T04:05:33.258Z,5.07
2022-08-05T04:08:03.424Z,5.15
2022-08-05T04:10:37.963Z,4.85
2022-08-05T04:13:06.853Z,5.45
2022-08-05T04:15:36.056Z,5.50
2022-08-05T04:18:07.841Z,5.20
2022-08-05T04:20:35.981Z,5.22
2022-08-05T04:23:02.474Z,5.20
2022-08-05T04:25:57.572Z,5.47
2022-08-05T04:28:17.576Z,5.00
2022-08-05T04:30:44.574Z,5.47
2022-08-05T04:33:12.413Z,5.35
2022-08-05T04:36:10.667Z,5.55
2022-08-05T04:38:39.619Z,5.60
2022-08-05T04:41:06.806Z,4.93
2022-08-05T04:43:34.001Z,5.32
2022-08-05T04:46:00.954Z,5.40
2022-08-05T04:48:28.391Z,5.28
2022-08-05T04:51:02.035Z,5.70
2022-08-05T04:53:38.903Z,5.30
2022-08-05T04:56:33.323Z,5.43
2022-08-05T04:58:55.380Z,5.50
2022-08-05T05:02:08.263Z,5.40
2022-08-05T05:04:08.419Z,5.05
2022-08-05T05:06:44.814Z,5.57
2022-08-05T05:09:17.511Z,5.00
2022-08-05T05:11:54.130Z,5.47
2022-08-05T05:14:28.145Z,5.05
2022-08-05T05:17:02.068Z,4.80
2022-08-05T05:19:36.384Z,5.13
2022-08-05T05:22:22.858Z,4.80
2022-08-05T05:24:57.164Z,5.07
2022-08-05T05:27:44.331Z,5.20
2022-08-05T05:30:31.427Z,5.00
2022-08-05T05:33:09.148Z,4.90
2022-08-05T05:35:43.365Z,4.22
2022-08-05T05:38:13.710Z,4.07
2022-08-05T05:40:49.693Z,4.30
2022-08-05T05:43:57.359Z,4.20
2022-08-05T05:46:17.846Z,3.80
2022-08-05T05:48:48.233Z,4.00
2022-08-05T05:51:23.379Z,3.97
2022-08-05T05:53:57.503Z,4.07
2022-08-05T05:56:33.021Z,4.10
2022-08-05T05:59:02.876Z,4.22
2022-08-05T06:01:38.145Z,4.20
2022-08-05T06:04:11.978Z,4.28
2022-08-05T06:06:42.825Z,4.18
2022-08-05T06:09:18.062Z,4.03
2022-08-05T06:12:01.014Z,4.10
2022-08-05T06:14:29.799Z,3.80
2022-08-05T06:16:57.023Z,3.70
2022-08-05T06:19:34.113Z,3.92
2022-08-05T06:22:06.716Z,3.97
2022-08-05T06:24:34.945Z,4.10
2022-08-05T06:27:02.361Z,4.28
2022-08-05T06:29:49.278Z,3.92
2022-08-05T06:32:26.129Z,3.90
2022-08-05T06:34:57.861Z,4.40
2022-08-05T06:37:55.931Z,3.90
2022-08-05T06:40:20.640Z,4.20
2022-08-05T06:42:51.682Z,4.05
2022-08-05T06:45:44.098Z,4.00
2022-08-05T06:48:36.592Z,4.05
2022-08-05T06:50:53.845Z,4.38
2022-08-05T06:53:22.727Z,4.30
2022-08-05T06:55:56.465Z,4.50
2022-08-05T06:58:35.288Z,4.30
2022-08-05T07:01:05.564Z,4.47
2022-08-05T07:03:33.274Z,4.40
2022-08-05T07:06:05.748Z,4.13
2022-08-05T07:08:47.543Z,4.22
2022-08-05T07:11:15.890Z,4.50
2022-08-05T07:14:01.903Z,4.32
2022-08-05T07:17:59.331Z,4.47
2022-08-05T07:22:27.763Z,4.53
2022-08-05T07:24:57.052Z,4.72
2022-08-05T07:27:27.435Z,4.70
2022-08-05T07:30:24.045Z,4.43
2022-08-05T07:32:57.404Z,4.28
2022-08-05T07:36:01.875Z,4.60
2022-08-05T07:38:12.345Z,4.32
2022-08-05T07:40:55.596Z,4.78
2022-08-05T07:43:26.725Z,4.65
2022-08-05T07:45:57.040Z,4.78
2022-08-05T07:49:01.470Z,4.13
2022-08-05T07:51:23.848Z,4.30
2022-08-05T07:53:58.643Z,4.63
2022-08-05T07:57:02.476Z,4.32
2022-08-05T07:59:14.981Z,4.30
2022-08-05T08:01:52.273Z,4.53
2022-08-05T08:04:38.186Z,4.25
2022-08-05T08:07:07.037Z,4.40
2022-08-05T08:09:34.771Z,4.18
2022-08-05T08:12:09.087Z,3.95
2022-08-05T08:14:37.926Z,3.90
2022-08-05T08:17:10.816Z,4.10
2022-08-05T08:20:20.973Z,3.90
2022-08-05T08:22:30.458Z,4.13
2022-08-05T08:25:03.386Z,4.00
2022-08-05T08:27:39.854Z,4.00
2022-08-05T08:30:30.187Z,4.00
2022-08-05T08:33:02.647Z,4.00
2022-08-05T08:35:40.866Z,4.10
2022-08-05T08:38:08.529Z,4.10
2022-08-05T08:40:45.689Z,3.85
2022-08-05T08:44:57.902Z,3.70
2022-08-05T08:46:06.334Z,4.00
2022-08-05T08:49:02.895Z,3.60
2022-08-05T08:52:03.389Z,3.60
2022-08-05T08:54:13.926Z,3.47
2022-08-05T08:56:47.899Z,4.10
2022-08-05T08:59:19.755Z,3.30
2022-08-05T09:01:57.267Z,3.90
2022-08-05T09:04:30.649Z,3.55
2022-08-05T09:06:57.754Z,3.55
2022-08-05T09:09:25.914Z,3.60
2022-08-05T09:12:03.388Z,3.58
2022-08-05T09:14:57.031Z,3.40
2022-08-05T09:17:41.378Z,2.95
2022-08-05T09:20:10.991Z,3.00
2022-08-05T09:23:05.361Z,3.00
2022-08-05T09:26:01.558Z,2.70
2022-08-05T09:28:32.435Z,2.50
2022-08-05T09:31:44.230Z,2.83
2022-08-05T09:34:06.711Z,3.42
2022-08-05T09:36:56.422Z,3.20
2022-08-05T09:39:41.426Z,2.97
2022-08-05T09:42:23.981Z,2.60
2022-08-05T09:44:56.157Z,2.60
2022-08-05T09:47:47.971Z,2.25
2022-08-05T09:50:18.011Z,2.60
2022-08-05T09:53:03.831Z,2.30
2022-08-05T09:55:56.774Z,2.40
2022-08-05T09:58:22.661Z,2.45
2022-08-05T10:01:13.324Z,2.50
2022-08-05T10:03:56.889Z,2.47
2022-08-05T10:06:27.871Z,2.40
2022-08-05T10:08:55.642Z,2.40
2022-08-05T10:11:22.981Z,2.45
2022-08-05T10:13:54.511Z,2.55
2022-08-05T10:16:52.778Z,2.30
2022-08-05T10:19:23.449Z,2.50
2022-08-05T10:21:58.559Z,2.35
2022-08-05T10:24:27.161Z,2.50
2022-08-05T10:27:00.647Z,2.22
2022-08-05T10:30:06.627Z,2.60
2022-08-05T10:32:55.078Z,2.30
2022-08-05T10:35:03.280Z,2.50
2022-08-05T10:37:40.351Z,2.50
2022-08-05T10:40:28.288Z,2.50
2022-08-05T10:43:01.234Z,2.53
2022-08-05T10:48:36.097Z,2.63
2022-08-05T10:51:23.222Z,2.20
2022-08-05T10:54:05.966Z,2.78
2022-08-05T10:56:52.804Z,2.63
2022-08-05T11:00:04.150Z,2.65
2022-08-05T11:02:37.727Z,2.40
2022-08-05T11:05:05.752Z,2.22
2022-08-05T11:07:32.750Z,2.42
2022-08-05T11:10:27.481Z,2.50
2022-08-05T11:12:56.985Z,2.70
2022-08-05T11:15:59.490Z,2.30
2022-08-05T11:18:26.102Z,2.30
2022-08-05T11:20:53.690Z,2.42
2022-08-05T11:24:02.224Z,2.30
2022-08-05T11:26:16.297Z,2.42
2022-08-05T11:28:56.038Z,2.70
2022-08-05T11:31:56.520Z,2.80
2022-08-05T11:39:48.994Z,2.53
2022-08-05T11:42:18.283Z,2.35
2022-08-05T11:44:53.688Z,2.60
2022-08-05T11:47:49.047Z,2.40
2022-08-05T11:50:14.380Z,2.30
2022-08-05T11:52:41.623Z,2.55
2022-08-05T11:55:12.605Z,8.10
2022-08-05T11:58:11.053Z,4.85
2022-08-05T12:00:32.368Z,2.70
2022-08-05T12:03:23.845Z,2.40
2022-08-05T12:06:00.866Z,2.50
2022-08-05T12:08:27.560Z,2.50
2022-08-05T12:10:58.224Z,2.70
2022-08-05T12:13:47.547Z,2.50
2022-08-05T12:16:18.459Z,3.28
2022-08-05T12:18:52.696Z,2.40
2022-08-05T12:21:24.228Z,2.50
2022-08-05T12:24:04.908Z,2.50
2022-08-05T12:26:44.550Z,2.50
2022-08-05T12:29:16.356Z,2.50
2022-08-05T12:31:49.918Z,2.20
2022-08-05T12:34:23.750Z,2.50
2022-08-05T12:36:53.694Z,2.65
2022-08-05T12:39:21.426Z,2.35
2022-08-05T12:41:48.617Z,2.60
2022-08-05T12:44:21.872Z,2.40
2022-08-05T12:47:00.217Z,2.55
2022-08-05T12:50:03.895Z,2.50
2022-08-05T12:52:31.236Z,2.60
2022-08-05T12:55:16.977Z,2.60
2022-08-05T12:58:38.872Z,2.58
2022-08-05T13:02:00.102Z,2.50
2022-08-05T13:03:18.010Z,2.58
2022-08-05T13:05:48.533Z,2.60
2022-08-05T13:08:19.499Z,2.72
2022-08-05T13:10:50.603Z,2.80
2022-08-05T13:14:05.546Z,2.72
2022-08-05T13:16:15.361Z,2.90
2022-08-05T13:18:57.768Z,2.75
2022-08-05T13:21:28.010Z,2.55
2022-08-05T13:24:05.544Z,2.72
2022-08-05T13:26:32.286Z,2.83
2022-08-05T13:28:59.216Z,3.08
2022-08-05T13:32:02.992Z,2.80
2022-08-05T13:34:22.728Z,3.00
2022-08-05T13:36:53.634Z,2.97
2022-08-05T13:39:24.412Z,2.83
2022-08-05T13:42:07.477Z,2.70
2022-08-05T13:44:45.057Z,2.95
2022-08-05T13:47:28.128Z,2.85
2022-08-05T13:50:04.645Z,2.90
2022-08-05T13:52:35.193Z,3.00
2022-08-05T13:55:07.980Z,2.95
2022-08-05T13:57:50.678Z,2.70
2022-08-05T14:00:18.412Z,2.90
2022-08-05T14:02:53.940Z,2.80
2022-08-05T14:05:29.516Z,3.00
2022-08-05T14:08:11.157Z,3.00
2022-08-05T14:10:48.409Z,2.75
2022-08-05T14:13:15.522Z,2.80
2022-08-05T14:16:06.193Z,3.10
2022-08-05T14:18:28.846Z,2.90
2022-08-05T14:20:55.394Z,3.00
2022-08-05T14:23:25.558Z,3.00
2022-08-05T14:25:58.593Z,2.97
2022-08-05T14:28:30.275Z,2.85
2022-08-05T14:30:58.316Z,2.90
2022-08-05T14:33:24.930Z,3.00
2022-08-05T14:35:52.378Z,2.80
2022-08-05T14:38:32.911Z,2.88
2022-08-05T14:41:05.974Z,2.90
2022-08-05T14:46:21.120Z,3.00
2022-08-05T14:48:50.000Z,3.00
2022-08-05T14:51:17.813Z,3.00
2022-08-05T14:53:45.407Z,2.90
2022-08-05T14:56:31.908Z,3.00
2022-08-05T14:58:58.440Z,2.85
2022-08-05T15:01:48.509Z,2.60
2022-08-05T15:04:11.848Z,3.00
2022-08-05T15:06:39.124Z,2.92
2022-08-05T15:09:07.071Z,2.90
2022-08-05T15:11:51.998Z,2.80
2022-08-05T15:14:34.595Z,2.70
2022-08-05T15:17:09.780Z,2.80
2022-08-05T15:19:41.186Z,2.88
2022-08-05T15:22:16.011Z,2.80
2022-08-05T15:24:42.852Z,2.63
2022-08-05T15:27:09.559Z,2.70
2022-08-05T15:29:41.820Z,2.90
2022-08-05T15:32:08.873Z,2.63
2022-08-05T15:34:35.393Z,2.75
2022-08-05T15:37:06.358Z,2.40
2022-08-05T15:41:00.356Z,3.00
2022-08-05T15:42:49.764Z,2.50
2022-08-05T15:45:14.843Z,2.83
2022-08-05T15:47:42.895Z,2.60
2022-08-05T15:50:15.431Z,2.70
2022-08-05T15:52:54.764Z,2.60
2022-08-05T15:55:24.509Z,2.70
2022-08-05T15:57:52.233Z,2.65
2022-08-05T16:00:26.322Z,2.80
2022-08-05T16:02:59.829Z,2.70
2022-08-05T16:05:28.445Z,2.80
2022-08-05T16:07:55.280Z,2.85
2022-08-05T16:10:25.498Z,2.80
2022-08-05T16:12:53.421Z,2.90
2022-08-05T16:15:22.816Z,2.80
2022-08-05T16:17:57.960Z,2.85
2022-08-05T16:20:25.841Z,2.80
2022-08-05T16:22:54.542Z,2.70
2022-08-05T16:25:21.133Z,2.58
2022-08-05T16:28:02.197Z,2.60
2022-08-05T16:30:32.894Z,2.60
2022-08-05T16:33:00.283Z,2.55
2022-08-05T16:35:32.410Z,2.47
2022-08-05T16:38:16.109Z,2.70
2022-08-05T16:40:52.285Z,2.55
2022-08-05T16:43:31.798Z,2.97
2022-08-05T16:46:04.249Z,3.08
2022-08-05T16:48:36.301Z,2.90
2022-08-05T16:51:09.423Z,2.80
2022-08-05T16:54:03.004Z,3.00
2022-08-05T16:56:25.502Z,2.53
2022-08-05T16:58:52.216Z,2.47
2022-08-05T17:01:19.190Z,2.90
2022-08-05T17:03:46.148Z,2.88
2022-08-05T17:06:16.595Z,2.78
2022-08-05T17:08:53.581Z,2.72
2022-08-05T17:11:25.447Z,2.67
2022-08-05T17:14:00.173Z,2.63
2022-08-05T17:16:36.568Z,2.75
2022-08-05T17:19:07.132Z,2.70
2022-08-05T17:21:36.243Z,2.90
2022-08-05T17:24:18.722Z,2.97
2022-08-05T17:26:57.700Z,2.70
2022-08-05T17:29:33.791Z,2.80
2022-08-05T17:32:08.426Z,2.60
2022-08-05T17:34:38.081Z,2.70
2022-08-05T17:37:12.921Z,2.60
2022-08-05T17:39:55.095Z,2.60
2022-08-05T17:42:25.839Z,2.72
2022-08-05T17:44:56.818Z,2.70
2022-08-05T17:47:23.635Z,2.60
2022-08-05T17:49:59.624Z,2.75
2022-08-05T17:52:32.081Z,2.70
2022-08-05T17:54:59.446Z,2.90
2022-08-05T17:57:26.090Z,2.90
2022-08-05T18:00:05.065Z,2.88
2022-08-05T18:02:33.348Z,2.83
2022-08-05T18:05:07.663Z,2.80
2022-08-05T18:07:41.147Z,2.80
2022-08-05T18:10:11.147Z,2.58
2022-08-05T18:12:38.842Z,2.85
2022-08-05T18:15:06.339Z,2.80
2022-08-05T18:17:59.644Z,2.80
2022-08-05T18:20:29.638Z,3.08
2022-08-05T18:23:00.393Z,3.00
2022-08-05T18:25:33.049Z,3.00
2022-08-05T18:28:01.730Z,3.17
2022-08-05T18:30:32.261Z,2.97
2022-08-05T18:33:00.193Z,3.22
2022-08-05T18:36:01.293Z,3.40
2022-08-05T18:38:16.402Z,3.20
2022-08-05T18:41:57.291Z,3.30
2022-08-05T18:43:38.046Z,3.30
2022-08-05T18:46:09.746Z,3.30
2022-08-05T18:48:41.882Z,3.42
2022-08-05T18:52:03.373Z,3.93
2022-08-05T18:54:14.532Z,3.53
2022-08-05T20:28:23.019Z,3.00
2022-08-05T20:30:49.557Z,3.30
2022-08-05T20:33:16.335Z,2.80
2022-08-05T20:35:45.640Z,2.60
2022-08-05T20:38:20.219Z,3.30
2022-08-05T20:40:54.567Z,4.10
2022-08-05T20:43:33.197Z,3.30
2022-08-05T20:46:10.134Z,3.08
2022-08-05T20:48:39.197Z,3.08
2022-08-05T20:51:08.793Z,2.92
2022-08-05T20:53:36.818Z,2.90
2022-08-05T20:56:09.716Z,3.08
2022-08-05T20:58:36.941Z,3.08
2022-08-05T21:01:04.489Z,3.10
2022-08-05T21:03:34.472Z,3.20
2022-08-05T21:06:01.872Z,3.28
2022-08-05T21:08:41.333Z,3.30
2022-08-05T21:11:15.154Z,3.50
2022-08-05T21:13:59.885Z,3.50
2022-08-05T21:16:29.862Z,3.60
2022-08-05T21:19:01.563Z,3.45
2022-08-05T21:21:43.994Z,3.95
2022-08-05T21:24:16.875Z,3.70
2022-08-05T21:26:53.510Z,3.80
2022-08-05T21:29:26.549Z,4.30
2022-08-05T21:31:58.346Z,4.07
2022-08-05T21:34:24.853Z,4.30
2022-08-05T21:36:51.474Z,4.00
2022-08-05T21:39:26.897Z,4.43
2022-08-05T21:42:01.660Z,4.60
2022-08-05T21:44:29.155Z,4.93
2022-08-05T21:46:58.073Z,4.70
2022-08-05T21:49:59.313Z,5.15
2022-08-05T21:52:21.689Z,5.32
2022-08-05T21:54:55.372Z,4.82
2022-08-05T21:57:31.200Z,5.32
2022-08-05T22:00:07.094Z,5.03
2022-08-05T22:02:42.462Z,5.00
2022-08-05T22:05:10.300Z,5.28
2022-08-05T22:07:39.921Z,5.57
2022-08-05T22:10:25.479Z,5.82
2022-08-05T22:12:55.108Z,4.60
2022-08-05T22:16:04.680Z,5.10
2022-08-05T22:18:11.150Z,4.93
2022-08-05T22:20:39.124Z,4.80
2022-08-05T22:23:25.448Z,4.22
2022-08-05T22:26:30.254Z,4.68
2022-08-05T22:28:56.767Z,4.30
2022-08-05T22:31:25.004Z,4.45
2022-08-05T22:34:01.186Z,4.22
2022-08-05T22:36:29.055Z,4.30
2022-08-05T22:38:56.264Z,4.40
2022-08-05T22:41:26.468Z,4.70
2022-08-05T22:44:10.061Z,4.30
2022-08-05T22:46:39.820Z,4.53
2022-08-05T22:49:23.171Z,4.20
2022-08-05T22:52:04.673Z,4.10
2022-08-05T22:54:35.438Z,4.18
2022-08-05T22:57:02.829Z,4.25
2022-08-05T22:59:46.443Z,4.05
2022-08-05T23:02:29.542Z,4.00
2022-08-05T23:05:01.820Z,4.20
2022-08-05T23:07:32.393Z,3.83
2022-08-05T23:10:02.093Z,4.00
2022-08-05T23:12:32.750Z,3.90
2022-08-05T23:15:04.111Z,4.07
2022-08-05T23:17:59.587Z,4.28
2022-08-05T23:20:24.339Z,3.90
2022-08-05T23:22:56.082Z,3.80
2022-08-05T23:25:51.003Z,3.78
2022-08-05T23:28:10.260Z,4.72
2022-08-05T23:30:40.017Z,4.07
2022-08-05T23:33:15.990Z,4.60
2022-08-05T23:35:48.292Z,4.50
2022-08-05T23:38:16.255Z,4.13
2022-08-05T23:40:50.126Z,4.40
2022-08-05T23:43:24.811Z,4.50
2022-08-05T23:46:20.540Z,4.15
2022-08-05T23:49:00.791Z,4.00
2022-08-05T23:51:52.403Z,5.60
2022-08-05T23:54:25.705Z,5.40
2022-08-05T23:56:58.299Z,5.10
